Time;durP1;ratioP1;P1;durP2;ratioP2;P2;SDS_P1;SDS_P2;PMS_P1;PMS_P2;Temp;Humidity;BMP_temperature;BMP_pressure;BME280_temperature;BME280_humidity;BME280_pressure;Samples;Min_cycle;Max_cycle;Signal;HPM_P1;HPM_P2
2022/08/14 00:00:57;;;;;;;;;;;;;;;21.52;87.61;98801.37;1754466;80;20119;-73
2022/08/14 00:03:28;;;;;;;;;;;;;;;21.49;87.62;98797.00;1753040;80;20122;-73
2022/08/14 00:05:55;;;;;;;;;;;;;;;21.48;87.58;98796.17;1754589;81;20078;-74
2022/08/14 00:08:21;;;;;;;;;;;;;;;21.41;87.33;98790.70;1755705;80;20079;-75
2022/08/14 00:10:48;;;;;;;;;;;;;;;21.36;87.30;98794.17;1754429;80;21949;-76
2022/08/14 00:13:17;;;;;;;;;;;;;;;21.31;87.31;98795.48;1753796;80;21024;-75
2022/08/14 00:15:44;;;;;;;;;;;;;;;21.29;87.26;98798.98;1754448;80;20437;-75
2022/08/14 00:18:12;;;;;;;;;;;;;;;21.26;87.37;98793.27;1735538;81;20492;-73
2022/08/14 00:20:40;;;;;;;;;;;;;;;21.24;87.49;98800.82;1754684;80;20115;-76
2022/08/14 00:23:07;;;;;;;;;;;;;;;21.22;87.63;98801.62;1750118;80;21771;-77
2022/08/14 00:25:33;;;;;;;;;;;;;;;21.20;87.76;98808.62;1754564;81;20444;-73
2022/08/14 00:28:00;;;;;;;;;;;;;;;21.19;87.72;98806.18;1754650;82;20123;-73
2022/08/14 00:30:26;;;;;;;;;;;;;;;21.17;87.68;98800.22;1754635;81;20074;-73
2022/08/14 00:32:52;;;;;;;;;;;;;;;21.18;87.66;98799.13;1750730;82;20437;-75
2022/08/14 00:35:19;;;;;;;;;;;;;;;21.17;87.59;98800.22;1694753;83;21510;-76
2022/08/14 00:37:46;;;;;;;;;;;;;;;21.15;87.41;98809.09;1746858;81;20107;-75
2022/08/14 00:40:14;;;;;;;;;;;;;;;21.11;87.33;98805.28;1714461;82;20075;-76
2022/08/14 00:42:40;;;;;;;;;;;;;;;21.09;87.33;98798.75;1711722;83;20095;-74
2022/08/14 00:45:09;;;;;;;;;;;;;;;21.08;87.49;98804.43;1702623;83;20071;-75
2022/08/14 00:47:35;;;;;;;;;;;;;;;21.09;87.57;98805.52;1714384;82;21774;-74
2022/08/14 00:50:03;;;;;;;;;;;;;;;21.11;87.88;98805.28;1712388;83;20155;-73
2022/08/14 00:52:30;;;;;;;;;;;;;;;21.12;88.14;98810.98;1713913;82;20172;-74
2022/08/14 00:54:57;;;;;;;;;;;;;;;21.11;88.23;98809.34;1691626;82;20322;-73
2022/08/14 00:57:28;;;;;;;;;;;;;;;21.12;88.21;98806.92;1692046;83;20113;-76
2022/08/14 00:59:56;;;;;;;;;;;;;;;21.13;88.06;98793.66;1714435;83;21128;-73
2022/08/14 01:02:25;;;;;;;;;;;;;;;21.13;87.78;98783.67;1712646;83;20434;-73
2022/08/14 01:04:53;;;;;;;;;;;;;;;21.11;87.87;98785.82;1694826;83;20084;-74
2022/08/14 01:07:20;;;;;;;;;;;;;;;21.08;88.37;98786.33;1714341;82;20108;-73
2022/08/14 01:09:53;;;;;;;;;;;;;;;21.10;88.69;98788.76;1714383;83;20147;-74
2022/08/14 01:12:20;;;;;;;;;;;;;;;21.12;88.96;98783.38;1713908;83;21128;-72
2022/08/14 01:14:46;;;;;;;;;;;;;;;21.15;89.03;98783.40;1714669;82;20434;-72
2022/08/14 01:17:13;;;;;;;;;;;;;;;21.15;89.10;98786.92;1714601;83;20083;-72
2022/08/14 01:22:24;;;;;;;;;;;;;;;21.21;88.99;98782.39;1699898;83;20109;-72
2022/08/14 01:24:50;;;;;;;;;;;;;;;21.22;88.80;98771.30;1709676;83;21705;-71
2022/08/14 01:27:18;;;;;;;;;;;;;;;21.22;88.72;98769.16;1706968;83;20111;-73
2022/08/14 01:29:46;;;;;;;;;;;;;;;21.18;88.81;98780.19;1701150;83;20176;-75
2022/08/14 01:32:12;;;;;;;;;;;;;;;21.13;88.95;98773.38;1714445;83;20111;-74
2022/08/14 01:34:39;;;;;;;;;;;;;;;21.09;89.10;98770.92;1700216;83;20467;-73
2022/08/14 01:37:06;;;;;;;;;;;;;;;21.08;89.31;98762.52;1714370;83;21149;-75
2022/08/14 01:39:33;;;;;;;;;;;;;;;21.11;89.27;98764.72;1745415;82;20098;-73
2022/08/14 01:41:59;;;;;;;;;;;;;;;21.13;89.16;98755.80;1754560;81;20107;-72
2022/08/14 01:44:30;;;;;;;;;;;;;;;21.07;89.54;98756.81;1737728;82;20424;-73
2022/08/14 01:46:57;;;;;;;;;;;;;;;21.15;89.32;98759.06;1754495;81;20099;-75
2022/08/14 01:49:24;;;;;;;;;;;;;;;21.15;89.29;98762.59;1753574;80;21142;-74
2022/08/14 01:51:55;;;;;;;;;;;;;;;21.19;89.36;98766.96;1754582;80;20123;-72
2022/08/14 01:54:22;;;;;;;;;;;;;;;21.23;89.29;98776.19;1753397;80;20138;-73
2022/08/14 01:56:47;;;;;;;;;;;;;;;21.28;89.26;98776.23;1754400;82;20075;-76
2022/08/14 01:59:19;;;;;;;;;;;;;;;21.31;89.03;98773.02;1754501;82;20448;-72
2022/08/14 02:01:48;;;;;;;;;;;;;;;21.33;88.90;98771.69;1740904;82;21129;-73
2022/08/14 02:04:14;;;;;;;;;;;;;;;21.34;88.81;98771.98;1747757;80;20083;-73
2022/08/14 02:06:40;;;;;;;;;;;;;;;21.36;88.78;98767.13;1754653;82;20083;-72
2022/08/14 02:09:07;;;;;;;;;;;;;;;21.41;88.60;98765.81;1754628;80;20469;-72
2022/08/14 02:11:34;;;;;;;;;;;;;;;21.42;88.18;98755.81;1754692;80;20145;-75
2022/08/14 02:14:03;;;;;;;;;;;;;;;21.37;87.97;98756.59;1753854;81;21125;-74
2022/08/14 02:16:32;;;;;;;;;;;;;;;21.33;87.88;98760.05;1751976;80;20433;-71
2022/08/14 02:19:00;;;;;;;;;;;;;;;21.29;88.10;98773.81;1740313;80;20134;-75
2022/08/14 02:21:31;;;;;;;;;;;;;;;21.26;88.29;98766.20;1754494;80;20633;-72
2022/08/14 02:23:56;;;;;;;;;;;;;;;21.31;87.99;98763.55;1753377;80;20111;-73
2022/08/14 02:26:26;;;;;;;;;;;;;;;21.24;88.08;98768.36;1754500;80;21541;-72
2022/08/14 02:28:54;;;;;;;;;;;;;;;21.22;88.19;98754.28;1753615;82;20404;-72
2022/08/14 02:31:20;;;;;;;;;;;;;;;21.22;88.08;98751.02;1754483;80;20098;-71
2022/08/14 02:33:47;;;;;;;;;;;;;;;21.20;88.04;98755.05;1752903;80;20295;-72
2022/08/14 02:36:14;;;;;;;;;;;;;;;21.18;88.09;98761.26;1745454;82;20142;-72
2022/08/14 02:38:40;;;;;;;;;;;;;;;21.20;88.02;98764.52;1744948;82;21135;-74
2022/08/14 02:41:11;;;;;;;;;;;;;;;21.18;87.93;98758.55;1727958;82;20426;-72
2022/08/14 02:43:38;;;;;;;;;;;;;;;21.16;87.91;98764.23;1746664;81;20119;-72
2022/08/14 02:46:08;;;;;;;;;;;;;;;21.14;87.88;98760.16;1747689;82;20165;-72
2022/08/14 02:48:38;;;;;;;;;;;;;;;21.12;87.92;98760.95;1747613;82;20083;-72
2022/08/14 02:51:06;;;;;;;;;;;;;;;21.12;87.97;98756.33;1729774;82;21144;-72
2022/08/14 02:53:33;;;;;;;;;;;;;;;21.12;87.96;98763.66;1733824;82;20101;-76
2022/08/14 02:56:00;;;;;;;;;;;;;;;21.09;87.80;98768.22;1744276;82;20107;-72
2022/08/14 02:58:26;;;;;;;;;;;;;;;21.06;87.63;98760.58;1747619;82;20436;-71
2022/08/14 03:00:54;;;;;;;;;;;;;;;21.00;87.69;98755.64;1735528;81;20093;-73
2022/08/14 03:03:22;;;;;;;;;;;;;;;20.98;87.56;98751.56;1736685;82;21816;-75
2022/08/14 03:05:50;;;;;;;;;;;;;;;20.93;87.82;98757.19;1738919;82;20087;-72
2022/08/14 03:08:17;;;;;;;;;;;;;;;20.91;87.92;98755.80;1747613;82;20102;-74
2022/08/14 03:10:43;;;;;;;;;;;;;;;20.87;88.03;98758.22;1743776;82;20161;-71
2022/08/14 03:13:10;;;;;;;;;;;;;;;20.86;88.12;98751.17;1744280;82;20159;-72
2022/08/14 03:15:43;;;;;;;;;;;;;;;20.86;88.31;98761.98;1747720;82;21789;-73
2022/08/14 03:18:10;;;;;;;;;;;;;;;20.89;88.30;98751.20;1746284;82;20300;-73
2022/08/14 03:20:37;;;;;;;;;;;;;;;20.91;88.36;98755.80;1747713;81;20142;-74
2022/08/14 03:23:03;;;;;;;;;;;;;;;20.94;88.44;98757.48;1727155;82;20157;-74
2022/08/14 03:25:32;;;;;;;;;;;;;;;21.00;88.39;98758.87;1730021;82;20087;-74
2022/08/14 03:28:05;;;;;;;;;;;;;;;21.02;88.30;98755.38;1747535;82;21138;-73
2022/08/14 03:30:32;;;;;;;;;;;;;;;21.00;88.26;98749.42;1745104;82;20105;-73
2022/08/14 03:32:58;;;;;;;;;;;;;;;21.01;88.33;98743.77;1742929;82;20767;-73
2022/08/14 03:35:25;;;;;;;;;;;;;;;21.04;88.32;98755.41;1747463;81;20075;-73
2022/08/14 03:37:54;;;;;;;;;;;;;;;21.09;88.36;98750.64;1747533;82;20111;-74
2022/08/14 03:40:21;;;;;;;;;;;;;;;21.14;88.24;98747.98;1752121;80;21087;-74
2022/08/14 03:42:48;;;;;;;;;;;;;;;21.19;88.19;98744.80;1752697;81;20118;-75
2022/08/14 03:45:15;;;;;;;;;;;;;;;21.25;87.98;98745.63;1732449;80;20097;-76
2022/08/14 03:47:41;;;;;;;;;;;;;;;21.31;87.89;98743.27;1732426;82;20082;-73
2022/08/14 03:50:09;;;;;;;;;;;;;;;21.37;87.76;98736.30;1754758;80;20115;-74
2022/08/14 03:52:36;;;;;;;;;;;;;;;21.45;87.45;98735.02;1753481;82;21137;-74
2022/08/14 03:55:08;;;;;;;;;;;;;;;21.55;87.15;98729.68;1739031;80;20098;-72
2022/08/14 03:57:34;;;;;;;;;;;;;;;21.64;86.96;98717.28;1754693;80;20071;-74
2022/08/14 04:00:05;;;;;;;;;;;;;;;21.75;86.67;98723.05;1754550;82;20133;-73
2022/08/14 04:02:35;;;;;;;;;;;;;;;21.87;86.34;98722.38;1733580;80;20101;-75
2022/08/14 04:05:01;;;;;;;;;;;;;;;22.02;86.05;98726.52;1736663;82;21514;-73
2022/08/14 04:07:28;;;;;;;;;;;;;;;22.19;85.73;98726.89;1750464;81;20432;-73
2022/08/14 04:09:55;;;;;;;;;;;;;;;22.39;85.40;98726.98;1754359;80;20154;-72
2022/08/14 04:12:21;;;;;;;;;;;;;;;22.62;84.66;98733.30;1754698;80;20098;-72
2022/08/14 04:14:48;;;;;;;;;;;;;;;22.80;83.85;98736.09;1753864;80;20111;-73
2022/08/14 04:17:14;;;;;;;;;;;;;;;22.95;82.96;98735.59;1754679;81;21137;-73
2022/08/14 04:19:40;;;;;;;;;;;;;;;23.09;82.00;98738.61;1755258;80;20460;-73
2022/08/14 04:22:07;;;;;;;;;;;;;;;23.17;81.28;98744.33;1754981;80;20090;-73
2022/08/14 04:24:33;;;;;;;;;;;;;;;23.25;80.45;98735.66;1732500;80;20257;-75
2022/08/14 04:27:00;;;;;;;;;;;;;;;23.32;79.71;98734.84;1750774;80;20131;-74
2022/08/14 04:29:26;;;;;;;;;;;;;;;23.37;79.08;98737.31;1737624;80;21851;-75
2022/08/14 04:31:52;;;;;;;;;;;;;;;23.37;78.67;98737.31;1754492;80;20091;-71
2022/08/14 04:34:18;;;;;;;;;;;;;;;23.37;78.44;98738.13;1744494;80;20094;-72
2022/08/14 04:44:59;;;;;;;;;;;;;;;24.08;77.13;98730.78;1735595;82;20173;-73
2022/08/14 04:50:10;;;;;;;;;;;;;;;24.77;75.53;98733.49;1747860;82;20099;-73
2022/08/14 04:52:36;;;;;;;;;;;;;;;25.10;74.05;98728.73;1743720;82;20437;-73
2022/08/14 04:55:03;;;;;;;;;;;;;;;25.36;72.79;98733.44;1732028;82;21127;-76
2022/08/14 04:57:30;;;;;;;;;;;;;;;25.51;71.77;98726.54;1747534;82;20115;-75
2022/08/14 04:59:56;;;;;;;;;;;;;;;25.63;70.82;98725.61;1747673;82;20444;-73
2022/08/14 05:02:24;;;;;;;;;;;;;;;25.67;70.23;98732.67;1739288;82;20079;-74
2022/08/14 05:04:50;;;;;;;;;;;;;;;25.67;69.84;98726.68;1720290;82;20089;-75
2022/08/14 05:07:16;;;;;;;;;;;;;;;25.65;69.69;98731.58;1736176;82;21532;-75
2022/08/14 05:09:43;;;;;;;;;;;;;;;25.66;69.55;98731.03;1747541;82;20118;-74
2022/08/14 05:12:11;;;;;;;;;;;;;;;25.78;69.82;98731.48;1747675;81;20488;-73
2022/08/14 05:14:38;;;;;;;;;;;;;;;26.03;69.56;98727.14;1728443;82;20475;-74
2022/08/14 05:17:04;;;;;;;;;;;;;;;26.30;68.90;98732.88;1747850;81;20090;-73
2022/08/14 05:19:30;;;;;;;;;;;;;;;26.59;68.36;98732.81;1748292;81;21080;-73
2022/08/14 05:21:57;;;;;;;;;;;;;;;26.86;66.67;98729.47;1748255;82;20112;-73
2022/08/14 05:24:23;;;;;;;;;;;;;;;26.90;65.60;98729.97;1728294;81;20459;-74
2022/08/14 05:26:50;;;;;;;;;;;;;;;26.87;65.87;98723.73;1736181;82;20360;-75
2022/08/14 05:29:17;;;;;;;;;;;;;;;26.98;65.97;98716.77;1728924;82;20111;-76
2022/08/14 05:31:43;;;;;;;;;;;;;;;27.12;65.31;98708.08;1746358;82;21048;-72
2022/08/14 05:34:10;;;;;;;;;;;;;;;27.35;65.16;98714.80;1741341;82;20334;-74
2022/08/14 05:36:36;;;;;;;;;;;;;;;27.69;64.46;98716.49;1735616;81;20094;-72
2022/08/14 05:39:03;;;;;;;;;;;;;;;28.10;63.41;98710.57;1742124;82;20454;-75
2022/08/14 05:41:31;;;;;;;;;;;;;;;28.54;62.42;98704.48;1736648;82;20236;-72
2022/08/14 05:43:57;;;;;;;;;;;;;;;29.07;61.06;98707.46;1749995;82;21126;-72
2022/08/14 05:46:24;;;;;;;;;;;;;;;29.59;58.46;98710.06;1735021;82;20095;-75
2022/08/14 05:48:53;;;;;;;;;;;;;;;29.93;57.85;98701.48;1732412;82;20100;-73
2022/08/14 05:51:20;;;;;;;;;;;;;;;30.33;56.19;98700.13;1722592;82;20120;-74
2022/08/14 05:53:47;;;;;;;;;;;;;;;30.48;54.77;98696.97;1742065;82;20094;-74
2022/08/14 05:56:13;;;;;;;;;;;;;;;30.28;54.48;98694.78;1733684;82;21091;-73
2022/08/14 05:58:39;;;;;;;;;;;;;;;29.95;54.93;98695.70;1735117;82;20193;-73
2022/08/14 06:01:05;;;;;;;;;;;;;;;29.59;55.48;98700.47;1748456;82;20111;-73
2022/08/14 06:03:32;;;;;;;;;;;;;;;29.33;56.54;98703.03;1752450;82;20137;-74
2022/08/14 06:05:58;;;;;;;;;;;;;;;29.28;56.72;98701.20;1739871;82;20093;-73
2022/08/14 06:08:27;;;;;;;;;;;;;;;29.20;57.10;98699.20;1735536;82;21797;-74
2022/08/14 06:10:55;;;;;;;;;;;;;;;28.98;57.38;98705.19;1743142;82;20186;-74
2022/08/14 06:13:21;;;;;;;;;;;;;;;28.58;57.34;98705.48;1752372;82;20122;-76
2022/08/14 06:15:49;;;;;;;;;;;;;;;28.21;58.20;98710.61;1748201;82;20099;-73
2022/08/14 06:18:16;;;;;;;;;;;;;;;27.94;59.00;98706.47;1739343;82;20082;-73
2022/08/14 06:20:43;;;;;;;;;;;;;;;27.75;59.84;98713.36;1752377;82;21740;-73
2022/08/14 06:23:09;;;;;;;;;;;;;;;27.77;60.76;98717.14;1752382;82;20159;-73
2022/08/14 06:25:35;;;;;;;;;;;;;;;28.29;59.85;98711.85;1752492;82;20102;-73
2022/08/14 06:28:02;;;;;;;;;;;;;;;28.84;57.86;98713.42;1747493;82;20456;-73
2022/08/14 06:30:31;;;;;;;;;;;;;;;29.24;57.21;98713.91;1748316;82;20118;-74
2022/08/14 06:32:57;;;;;;;;;;;;;;;29.87;55.05;98714.29;1752348;81;21097;-75
2022/08/14 06:35:24;;;;;;;;;;;;;;;30.27;54.25;98707.69;1752217;82;20098;-74
2022/08/14 06:37:56;;;;;;;;;;;;;;;30.67;52.98;98704.94;1744280;82;20458;-73
2022/08/14 06:40:27;;;;;;;;;;;;;;;31.24;51.54;98707.84;1723786;82;20179;-74
2022/08/14 06:42:59;;;;;;;;;;;;;;;31.80;50.45;98703.28;1747947;81;20083;-75
2022/08/14 06:45:25;;;;;;;;;;;;;;;32.52;49.46;98693.01;1747603;82;21231;-76
2022/08/14 06:47:52;;;;;;;;;;;;;;;33.09;47.72;98696.61;1735434;81;20097;-75
2022/08/14 06:50:20;;;;;;;;;;;;;;;33.03;46.69;98695.19;1736474;82;20143;-75
2022/08/14 06:52:47;;;;;;;;;;;;;;;32.69;47.17;98703.13;1747597;81;20115;-74
2022/08/14 06:55:14;;;;;;;;;;;;;;;32.41;47.87;98715.13;1747637;82;20082;-76
2022/08/14 06:57:44;;;;;;;;;;;;;;;31.96;48.28;98705.19;1742696;81;21157;-75
2022/08/14 07:00:14;;;;;;;;;;;;;;;31.50;49.63;98711.41;1747645;82;20127;-77
2022/08/14 07:08:14;;;;;;;;;;;;;;;31.10;50.99;98706.63;1740671;82;20159;-72
2022/08/14 07:10:42;;;;;;;;;;;;;;;31.13;50.85;98705.20;1747729;82;21125;-73
2022/08/14 07:13:10;;;;;;;;;;;;;;;31.22;50.82;98706.00;1747294;82;20157;-73
2022/08/14 07:15:36;;;;;;;;;;;;;;;31.62;49.82;98704.70;1747645;82;20075;-72
2022/08/14 07:18:03;;;;;;;;;;;;;;;31.81;48.81;98709.03;1724258;82;20205;-72
2022/08/14 07:20:30;;;;;;;;;;;;;;;32.06;47.81;98713.67;1731228;82;20161;-72
2022/08/14 07:22:57;;;;;;;;;;;;;;;31.84;47.81;98705.05;1747462;82;21772;-72
2022/08/14 07:25:24;;;;;;;;;;;;;;;31.45;48.23;98703.34;1747613;81;20424;-71
2022/08/14 07:27:50;;;;;;;;;;;;;;;31.13;49.14;98710.11;1732055;81;20117;-71
2022/08/14 07:30:16;;;;;;;;;;;;;;;31.09;49.85;98711.89;1739187;82;20099;-70
2022/08/14 07:32:43;;;;;;;;;;;;;;;31.25;49.64;98714.16;1729469;82;20075;-69
2022/08/14 07:35:10;;;;;;;;;;;;;;;31.73;48.44;98711.45;1747780;82;20509;-69
2022/08/14 07:37:37;;;;;;;;;;;;;;;32.00;47.53;98712.23;1743189;82;20118;-71
2022/08/14 07:40:04;;;;;;;;;;;;;;;32.12;47.35;98709.02;1747207;81;20107;-76
2022/08/14 07:42:31;;;;;;;;;;;;;;;32.47;47.22;98706.12;1710573;82;20105;-72
2022/08/14 07:44:58;;;;;;;;;;;;;;;33.40;45.64;98703.31;1725920;82;20154;-73
2022/08/14 07:47:25;;;;;;;;;;;;;;;34.10;44.02;98699.54;1704842;82;21167;-73
2022/08/14 07:50:07;;;;;;;;;;;;;;;34.31;42.92;98697.28;1702921;82;20140;-73
2022/08/14 07:52:33;;;;;;;;;;;;;;;34.50;43.35;98694.73;1704185;83;20192;-71
2022/08/14 07:54:59;;;;;;;;;;;;;;;34.76;41.95;98695.20;1696918;82;20219;-74
2022/08/14 07:57:27;;;;;;;;;;;;;;;34.61;41.59;98704.20;1708684;82;21051;-75
2022/08/14 07:59:53;;;;;;;;;;;;;;;34.62;41.15;98701.11;1705426;83;21138;-75
2022/08/14 08:02:20;;;;;;;;;;;;;;;34.38;41.63;98705.22;1698907;83;20163;-75
2022/08/14 08:04:49;;;;;;;;;;;;;;;33.99;41.88;98708.59;1699101;83;20170;-72
2022/08/14 08:07:15;;;;;;;;;;;;;;;33.58;42.44;98713.66;1695882;83;20461;-72
2022/08/14 08:09:44;;;;;;;;;;;;;;;33.13;42.97;98709.97;1704417;83;20148;-74
2022/08/14 08:12:10;;;;;;;;;;;;;;;32.70;43.58;98708.84;1718903;82;21113;-75
2022/08/14 08:14:37;;;;;;;;;;;;;;;32.16;44.52;98716.06;1706696;83;20091;-73
2022/08/14 08:17:05;;;;;;;;;;;;;;;31.70;45.76;98716.23;1726205;82;20473;-75
2022/08/14 08:19:31;;;;;;;;;;;;;;;31.38;46.68;98720.87;1719933;82;20141;-74
2022/08/14 08:21:58;;;;;;;;;;;;;;;31.16;47.29;98715.52;1716243;82;20169;-74
2022/08/14 08:24:24;;;;;;;;;;;;;;;30.87;47.50;98716.70;1700667;83;22181;-75
2022/08/14 08:26:50;;;;;;;;;;;;;;;30.60;48.14;98712.84;1707101;83;20099;-74
2022/08/14 08:29:21;;;;;;;;;;;;;;;30.66;48.70;98711.57;1698853;82;20146;-71
2022/08/14 08:31:49;;;;;;;;;;;;;;;31.02;47.80;98714.33;1712290;82;20462;-71
2022/08/14 08:34:16;;;;;;;;;;;;;;;30.98;47.13;98711.14;1713897;83;20103;-74
2022/08/14 08:36:42;;;;;;;;;;;;;;;31.11;47.28;98707.44;1713849;82;21089;-73
2022/08/14 08:39:09;;;;;;;;;;;;;;;32.22;45.26;98703.18;1712884;83;20124;-77
2022/08/14 08:41:46;;;;;;;;;;;;;;;33.52;44.29;98693.73;1734545;81;20157;-74
2022/08/14 08:44:13;;;;;;;;;;;;;;;34.97;41.79;98688.13;1754054;82;20107;-75
2022/08/14 08:46:39;;;;;;;;;;;;;;;36.45;38.86;98685.34;1751505;80;20515;-74
2022/08/14 08:49:05;;;;;;;;;;;;;;;36.97;34.04;98684.41;1742707;80;21138;-74
2022/08/14 08:51:39;;;;;;;;;;;;;;;37.14;33.41;98679.03;1746638;82;20095;-74
2022/08/14 08:54:07;;;;;;;;;;;;;;;37.65;32.50;98680.48;1734690;82;20188;-72
2022/08/14 08:56:39;;;;;;;;;;;;;;;37.93;31.33;98680.83;1742543;80;20188;-72
2022/08/14 08:59:26;;;;;;;;;;;;;;;38.10;31.53;98680.31;1732005;80;20139;-73
2022/08/14 09:01:58;;;;;;;;;;;;;;;38.21;31.91;98686.86;1739103;82;21260;-74
2022/08/14 09:04:40;;;;;;;;;;;;;;;38.69;31.42;98679.11;1753431;82;20090;-73
2022/08/14 09:07:10;;;;;;;;;;;;;;;39.15;29.81;98674.80;1749766;80;20200;-73
2022/08/14 09:09:50;;;;;;;;;;;;;;;39.32;29.11;98674.23;1731971;82;20163;-72
2022/08/14 09:12:10;;;;;;;;;;;;;;;39.27;29.33;98671.21;1728736;80;20130;-73
2022/08/14 09:14:39;;;;;;;;;;;;;;;39.24;29.79;98665.02;1726671;80;21260;-71
2022/08/14 09:17:06;;;;;;;;;;;;;;;39.45;29.31;98665.84;1742043;80;20150;-71
2022/08/14 09:19:32;;;;;;;;;;;;;;;39.57;28.72;98661.43;1741796;80;20083;-71
2022/08/14 09:21:59;;;;;;;;;;;;;;;39.69;28.60;98659.78;1692597;83;20485;-70
2022/08/14 09:24:26;;;;;;;;;;;;;;;39.31;28.65;98653.99;1764287;80;35840;-72
2022/08/14 09:26:52;;;;;;;;;;;;;;;38.60;30.07;98649.41;1747260;80;21810;-73
2022/08/14 09:29:18;;;;;;;;;;;;;;;37.97;31.73;98655.30;1735432;80;20148;-69
2022/08/14 09:31:45;;;;;;;;;;;;;;;37.46;31.43;98656.14;1725427;82;20140;-72
2022/08/14 09:34:18;;;;;;;;;;;;;;;36.76;32.42;98659.57;1730180;80;20206;-70
2022/08/14 09:37:03;;;;;;;;;;;;;;;35.98;32.99;98663.16;1739620;80;20170;-69
2022/08/14 09:39:49;;;;;;;;;;;;;;;34.90;34.72;98659.73;1733891;82;21138;-69
2022/08/14 09:42:44;;;;;;;;;;;;;;;33.80;36.89;98663.61;1708388;82;20121;-72
2022/08/14 09:45:16;;;;;;;;;;;;;;;32.96;38.54;98661.27;1701584;82;20150;-71
2022/08/14 09:47:49;;;;;;;;;;;;;;;32.26;40.14;98664.22;1710059;83;20140;-73
2022/08/14 09:50:20;;;;;;;;;;;;;;;31.78;41.66;98662.94;1692896;83;20122;-72
2022/08/14 09:53:04;;;;;;;;;;;;;;;31.40;43.00;98662.82;1698199;83;21927;-73
2022/08/14 09:55:34;;;;;;;;;;;;;;;30.96;44.14;98662.61;1713849;83;20429;-73
2022/08/14 09:58:10;;;;;;;;;;;;;;;30.58;45.10;98662.39;1708364;83;20151;-72
2022/08/14 10:00:47;;;;;;;;;;;;;;;30.33;45.92;98658.98;1697294;83;20860;-71
2022/08/14 10:03:32;;;;;;;;;;;;;;;30.25;46.49;98659.20;1695210;83;20194;-74
2022/08/14 10:06:14;;;;;;;;;;;;;;;30.31;46.81;98658.49;1703210;83;21139;-73
2022/08/14 10:08:50;;;;;;;;;;;;;;;30.52;46.44;98664.48;1697086;83;20136;-73
2022/08/14 10:11:19;;;;;;;;;;;;;;;30.73;45.20;98656.44;1708905;83;20152;-73
2022/08/14 10:13:47;;;;;;;;;;;;;;;30.99;45.01;98649.61;1710223;82;20144;-72
2022/08/14 10:16:14;;;;;;;;;;;;;;;31.23;43.87;98654.61;1711700;83;20664;-73
2022/08/14 10:18:40;;;;;;;;;;;;;;;31.41;43.35;98647.95;1706518;82;21137;-72
2022/08/14 10:21:08;;;;;;;;;;;;;;;31.55;43.04;98650.78;1692878;83;20172;-73
2022/08/14 10:23:43;;;;;;;;;;;;;;;31.58;42.97;98650.13;1696168;82;20145;-73
2022/08/14 10:26:09;;;;;;;;;;;;;;;31.55;43.41;98643.91;1708616;82;20135;-75
2022/08/14 10:28:43;;;;;;;;;;;;;;;31.62;43.64;98644.23;1703724;82;20414;-74
2022/08/14 10:31:31;;;;;;;;;;;;;;;31.74;42.97;98647.66;1714188;82;21301;-73
2022/08/14 10:33:59;;;;;;;;;;;;;;;31.83;42.35;98638.02;1711290;83;20084;-73
2022/08/14 10:36:27;;;;;;;;;;;;;;;31.98;42.11;98642.40;1692110;83;20142;-74
2022/08/14 10:38:57;;;;;;;;;;;;;;;32.06;41.96;98646.28;1697435;83;20496;-73
2022/08/14 10:41:28;;;;;;;;;;;;;;;32.20;41.59;98639.99;1703788;82;20277;-70
2022/08/14 10:44:07;;;;;;;;;;;;;;;32.19;41.51;98640.55;1745600;80;21160;-72
2022/08/14 10:46:45;;;;;;;;;;;;;;;32.12;40.28;98649.88;1743439;81;20083;-73
2022/08/14 10:49:17;;;;;;;;;;;;;;;32.06;40.38;98644.91;1733190;82;20129;-72
2022/08/14 10:52:05;;;;;;;;;;;;;;;32.08;40.53;98652.25;1739249;81;20132;-71
2022/08/14 10:54:36;;;;;;;;;;;;;;;32.06;40.94;98647.09;1744333;82;20128;-70
2022/08/14 10:57:17;;;;;;;;;;;;;;;32.08;41.38;98642.06;1744731;81;21785;-73
2022/08/14 10:59:48;;;;;;;;;;;;;;;32.10;41.40;98643.91;1742356;82;20122;-72
2022/08/14 11:02:27;;;;;;;;;;;;;;;32.08;41.28;98640.68;1738569;81;20103;-73
2022/08/14 11:05:09;;;;;;;;;;;;;;;32.01;41.66;98645.09;1746824;81;20143;-69
2022/08/14 11:07:40;;;;;;;;;;;;;;;31.97;42.21;98645.46;1747049;81;20597;-71
2022/08/14 11:10:09;;;;;;;;;;;;;;;31.91;42.76;98635.80;1738603;81;20128;-72
2022/08/14 11:12:46;;;;;;;;;;;;;;;31.92;42.05;98640.14;1745159;82;20119;-77
2022/08/14 11:15:23;;;;;;;;;;;;;;;31.91;41.85;98643.49;1728798;81;20453;-73
2022/08/14 11:17:50;;;;;;;;;;;;;;;31.89;42.23;98632.58;1742892;81;20945;-69
2022/08/14 11:20:18;;;;;;;;;;;;;;;31.84;42.21;98641.80;1746866;81;20123;-72
2022/08/14 11:22:44;;;;;;;;;;;;;;;31.76;42.40;98652.25;1758599;81;22145;-71
2022/08/14 11:25:13;;;;;;;;;;;;;;;31.74;41.69;98655.34;1737029;81;20135;-75
2022/08/14 11:27:42;;;;;;;;;;;;;;;31.88;41.73;98646.08;1728889;82;20483;-73
2022/08/14 11:30:10;;;;;;;;;;;;;;;32.02;41.40;98657.13;1730928;82;20535;-74
2022/08/14 11:32:39;;;;;;;;;;;;;;;32.00;41.37;98652.53;1737236;82;20157;-72
2022/08/14 11:35:06;;;;;;;;;;;;;;;31.98;41.52;98656.16;1720316;82;21743;-72
2022/08/14 11:37:33;;;;;;;;;;;;;;;31.94;41.97;98657.93;1706971;81;20117;-73
2022/08/14 11:40:00;;;;;;;;;;;;;;;31.76;42.32;98659.94;1726771;80;20311;-72
2022/08/14 11:42:27;;;;;;;;;;;;;;;31.65;42.64;98661.42;1747773;81;20127;-73
2022/08/14 11:44:56;;;;;;;;;;;;;;;31.56;42.28;98657.09;1735190;81;20161;-72
2022/08/14 11:47:23;;;;;;;;;;;;;;;31.41;42.62;98657.58;1737321;82;21766;-74
2022/08/14 11:49:49;;;;;;;;;;;;;;;31.30;43.00;98657.11;1718171;82;20177;-72
2022/08/14 11:52:19;;;;;;;;;;;;;;;31.33;43.25;98655.64;1743514;82;20094;-72
2022/08/14 11:54:48;;;;;;;;;;;;;;;31.26;43.41;98658.09;1725840;82;20115;-74
2022/08/14 11:57:15;;;;;;;;;;;;;;;31.16;43.48;98656.46;1721524;82;20221;-73
2022/08/14 11:59:41;;;;;;;;;;;;;;;31.07;44.02;98655.11;1718173;82;21109;-75
2022/08/14 12:02:15;;;;;;;;;;;;;;;31.00;44.12;98653.98;1744247;82;20091;-73
2022/08/14 12:04:51;;;;;;;;;;;;;;;30.87;44.31;98657.67;1747758;81;20099;-72
2022/08/14 12:07:18;;;;;;;;;;;;;;;30.75;44.75;98654.17;1725442;82;20083;-70
2022/08/14 12:09:46;;;;;;;;;;;;;;;30.75;45.36;98658.29;1732750;82;20410;-69
2022/08/14 12:12:17;;;;;;;;;;;;;;;30.78;45.69;98652.16;1747159;81;21973;-70
2022/08/14 12:14:58;;;;;;;;;;;;;;;30.78;45.71;98647.23;1736697;82;20093;-73
2022/08/14 12:17:26;;;;;;;;;;;;;;;30.75;45.68;98646.50;1732520;82;20122;-71
2022/08/14 12:19:54;;;;;;;;;;;;;;;30.58;45.91;98643.97;1733428;81;20137;-72
2022/08/14 12:22:42;;;;;;;;;;;;;;;30.35;45.99;98645.21;1747094;81;20140;-72
2022/08/14 12:25:13;;;;;;;;;;;;;;;30.16;46.83;98641.11;1729263;82;21141;-70
2022/08/14 12:27:50;;;;;;;;;;;;;;;29.98;47.00;98640.25;1734841;82;20156;-70
2022/08/14 12:30:28;;;;;;;;;;;;;;;29.90;47.14;98640.42;1730819;82;20428;-71
2022/08/14 12:32:58;;;;;;;;;;;;;;;29.83;47.13;98639.27;1731263;82;20167;-72
2022/08/14 12:35:35;;;;;;;;;;;;;;;29.78;47.58;98636.64;1747167;81;20079;-72
2022/08/14 12:38:03;;;;;;;;;;;;;;;29.79;47.67;98635.56;1747248;82;21142;-74
2022/08/14 12:40:30;;;;;;;;;;;;;;;29.82;48.12;98631.63;1745333;81;20453;-71
2022/08/14 12:43:02;;;;;;;;;;;;;;;29.87;48.42;98630.67;1747039;82;20159;-72
2022/08/14 12:45:31;;;;;;;;;;;;;;;29.91;48.63;98630.28;1747168;82;20480;-71
2022/08/14 12:48:03;;;;;;;;;;;;;;;29.96;48.77;98629.58;1747304;82;20071;-72
2022/08/14 12:50:37;;;;;;;;;;;;;;;29.95;48.24;98625.80;1728924;81;21213;-71
2022/08/14 12:53:03;;;;;;;;;;;;;;;29.94;48.07;98626.91;1740744;82;20169;-71
2022/08/14 12:55:33;;;;;;;;;;;;;;;29.96;48.23;98621.35;1731835;82;20126;-71
2022/08/14 12:57:59;;;;;;;;;;;;;;;30.01;48.42;98620.98;1746963;81;20087;-73
2022/08/14 13:00:25;;;;;;;;;;;;;;;30.04;48.77;98621.13;1743600;81;20123;-73
2022/08/14 13:02:53;;;;;;;;;;;;;;;30.06;49.00;98618.88;1726316;81;21525;-72
2022/08/14 13:05:23;;;;;;;;;;;;;;;30.04;48.26;98627.17;1737517;82;20117;-72
2022/08/14 13:07:50;;;;;;;;;;;;;;;29.93;46.86;98621.20;1737046;82;20155;-71
2022/08/14 13:10:19;;;;;;;;;;;;;;;29.84;46.55;98623.89;1741567;82;20135;-71
2022/08/14 13:12:45;;;;;;;;;;;;;;;29.76;47.01;98619.15;1747220;82;20150;-74
2022/08/14 13:15:13;;;;;;;;;;;;;;;29.71;47.95;98619.84;1747086;81;21838;-71